Flight Track Log - Related Links

Times and Time Zones

All times are in EDT time to prevent confusion due to time zone crossing. See the XA-RBS flight status page for this flight to view local times or setup timezone preferences in your user account.


Time Position Orientation Groundspeed Altitude Reporting Facility
EDT Latitude Longitude Course Direction KTS MPH feet Rate Location/Type
Fri 07:50:04 PM 32.9000 -96.9167 191° South 231 266 3,900  Level Dallas / Fort Worth TRACON
Fri 07:50:58 PM 32.9167 -96.9833 287° West 246 283 7,400 3,204 Climbing Dallas / Fort Worth TRACON
Fri 07:53:15 PM 32.7725 -97.0872 211° Southwest 285 328 14,100 2,954 Climbing Fort Worth Center
Fri 07:54:15 PM 32.6764 -97.1075 190° South 362 417 17,100 2,900 Climbing Fort Worth Center
Fri 07:55:15 PM 32.5553 -97.1300 189° South 402 463 19,900 2,700 Climbing Fort Worth Center
Fri 07:56:15 PM 32.4531 -97.1500 189° South 420 483 22,500 1,550 Climbing Fort Worth Center
Fri 07:57:15 PM 32.3197 -97.1725 188° South 430 495 23,000 1,550 Climbing Fort Worth Center
Fri 07:58:15 PM 32.1986 -97.1950 189° South 436 502 25,600 2,550 Climbing Fort Worth Center
Fri 07:59:15 PM 32.0794 -97.2172 189° South 442 509 28,100 2,100 Climbing Fort Worth Center
Fri 08:00:15 PM 31.9711 -97.2394 190° South 449 517 29,800 1,950 Climbing Fort Worth Center
Fri 08:01:15 PM 31.8458 -97.2642 190° South 449 517 32,000 2,214 Climbing Fort Worth Center
Fri 08:03:03 PM 31.6247 -97.3028 188° South 439 505 36,000 1,941 Climbing Houston Center
Fri 08:04:05 PM 31.5064 -97.3250 189° South 429 494 37,500 1,500 Climbing Houston Center
Fri 08:05:07 PM 31.3894 -97.3467 189° South 422 486 39,100 1,161 Climbing Houston Center
Fri 08:06:09 PM 31.2728 -97.3686 189° South 421 484 39,900 435 Climbing Houston Center
Fri 08:07:11 PM 31.1336 -97.3942 189° South 431 496 40,000 48 Climbing Houston Center
Fri 08:08:13 PM 31.0144 -97.4094 186° South 434 499 40,000  Level Houston Center
Fri 08:09:15 PM 30.8925 -97.4094 180° South 442 509 40,000  Level Houston Center
Fri 08:10:17 PM 30.7711 -97.4108 181° South 438 504 40,000  Level Houston Center
Fri 08:11:19 PM 30.6511 -97.4117 180° South 431 496 40,000  Level Houston Center
Fri 08:12:20 PM 30.5092 -97.4131 180° South 433 498 40,000  Level Houston Center
Fri 08:13:22 PM 30.3878 -97.4144 181° South 432 497 40,000  Level Houston Center
Fri 08:14:24 PM 30.2658 -97.4164 181° South 432 497 40,000  Level Houston Center
Fri 08:15:26 PM 30.1431 -97.4192 181° South 436 502 40,000 -48 Level Houston Center
Fri 08:16:28 PM 30.0258 -97.4192 180° South 438 504 39,900 -48 Descending Houston Center
Fri 08:17:30 PM 29.9064 -97.4214 181° South 433 498 39,900  Level Houston Center
Fri 08:18:31 PM 29.7628 -97.4228 180° South 431 496 39,900  Level Houston Center
Fri 08:19:33 PM 29.6433 -97.4239 180° South 431 496 39,900  Level Houston Center
Fri 08:20:35 PM 29.5244 -97.4250 180° South 432 497 39,900  Level Houston Center
Fri 08:21:37 PM 29.4042 -97.4269 181° South 434 499 39,900  Level Houston Center
Fri 08:22:38 PM 29.2839 -97.4294 181° South 435 501 39,900  Level Houston Center
Fri 08:23:40 PM 29.1625 -97.4331 181° South 439 505 39,900  Level Houston Center
Fri 08:24:42 PM 29.0150 -97.4369 181° South 444 511 39,900 48 Level Houston Center
Fri 08:25:44 PM 28.8939 -97.4406 181° South 440 506 40,000  Climbing Houston Center
Fri 08:26:45 PM 28.7719 -97.4453 182° South 440 506 39,900 -49 Descending Houston Center
Fri 08:27:47 PM 28.6486 -97.4486 181° South 441 507 39,900  Level Houston Center
Fri 08:28:49 PM 28.5258 -97.4525 182° South 442 509 39,900  Level Houston Center
Fri 08:29:50 PM 28.4008 -97.4525 180° South 445 512 39,900  Level Houston Center
Fri 08:30:52 PM 28.2544 -97.4575 182° South 441 507 39,900  Level Houston Center
Fri 08:31:54 PM 28.1319 -97.4614 182° South 439 505 39,900 48 Level Houston Center
Fri 08:32:56 PM 28.0058 -97.4642 181° South 448 516 40,000  Climbing Houston Center
Fri 08:33:57 PM 27.8769 -97.4672 181° South 450 518 39,900 -49 Descending Houston Center
Fri 08:34:59 PM 27.7525 -97.4703 181° South 447 514 39,900  Level Houston Center
Fri 08:36:01 PM 27.6283 -97.4733 181° South 445 512 39,900  Level Houston Center
Fri 08:37:03 PM 27.5019 -97.4764 181° South 449 517 39,900  Level Houston Center
Fri 08:38:04 PM 27.3764 -97.4811 182° South 450 518 39,900  Level Houston Center
Fri 08:39:06 PM 27.2253 -97.4842 181° South 450 518 39,900 48 Level Houston Center
Fri 08:40:08 PM 27.1022 -97.4894 182° South 453 521 40,000 49 Climbing Houston Center
Fri 08:41:09 PM 26.9750 -97.4914 181° South 413 475 40,000  Level Houston Center
Fri 08:42:11 PM 26.8422 -97.4939 181° South 434 499 40,000  Level Houston Center
Fri 08:43:13 PM 26.7217 -97.4983 182° South 433 498 40,000  Level Houston Center
Fri 08:44:14 PM 26.5919 -97.5006 181° South 431 496 40,000  Level Houston Center
Fri 08:45:16 PM 26.4708 -97.5053 182° South 433 498 40,000  Level Houston Center
Fri 08:46:18 PM 26.3608 -97.5425 197° South 412 474 40,000  Level Houston Center
Fri 08:47:19 PM 26.2508 -97.6006 205° Southwest 404 465 40,000  Level Houston Center
Fri 08:48:21 PM 26.1500 -97.6544 206° Southwest 417 480 40,000  Level Houston Center
Fri 08:49:22 PM 26.0392 -97.7131 205° Southwest 415 478 40,000  Level Houston Center
Fri 08:50:24 PM 25.9367 -97.7681 206° Southwest 408 470 40,000  Level Houston Center
Fri 08:52:00 PM 25.7640 -97.8175 194° South  Level Estimated
Fri 08:59:00 PM 25.0083 -98.0323 194° South  Level Estimated
Fri 09:00:00 PM 24.9003 -98.0628 194° South  Level Estimated
Fri 09:01:00 PM 24.7923 -98.0932 194° South  Level Estimated
Fri 09:02:00 PM 24.6843 -98.1236 194° South  Level Estimated
Fri 09:03:00 PM 24.5763 -98.1539 194° South  Level Estimated
Fri 09:04:00 PM 24.4683 -98.1841 194° South  Level Estimated
Fri 09:05:00 PM 24.3603 -98.2143 194° South  Level Estimated
Fri 09:06:00 PM 24.2523 -98.2445 194° South  Level Estimated
Fri 09:07:00 PM 24.1443 -98.2746 194° South  Level Estimated
Fri 09:08:00 PM 24.0362 -98.3046 194° South  Level Estimated
Fri 09:09:00 PM 23.9282 -98.3346 194° South  Level Estimated
Fri 09:10:00 PM 23.8202 -98.3646 194° South  Level Estimated
Fri 09:11:00 PM 23.7121 -98.3945 194° South  Level Estimated
Fri 09:12:00 PM 23.6041 -98.4243 194° South  Level Estimated
Fri 09:13:00 PM 23.4960 -98.4541 194° South  Level Estimated
Fri 09:14:00 PM 23.3879 -98.4839 194° South  Level Estimated
Fri 09:15:00 PM 23.2799 -98.5136 194° South  Level Estimated
Fri 09:16:00 PM 23.1718 -98.5433 194° South  Level Estimated
Fri 09:17:00 PM 23.0637 -98.5729 194° South  Level Estimated
Fri 09:18:00 PM 22.9556 -98.6024 194° South  Level Estimated
Fri 09:19:00 PM 22.8475 -98.6319 194° South  Level Estimated
Fri 09:20:00 PM 22.7394 -98.6614 194° South  Level Estimated
Fri 09:21:00 PM 22.6313 -98.6908 194° South  Level Estimated
Fri 09:22:00 PM 22.5232 -98.7202 194° South  Level Estimated
Fri 09:23:00 PM 22.4151 -98.7495 194° South  Level Estimated
Fri 09:24:00 PM 22.3070 -98.7788 194° South  Level Estimated
Fri 09:25:00 PM 22.1989 -98.8080 194° South  Level Estimated
Fri 09:26:00 PM 22.0907 -98.8372 194° South  Level Estimated
Fri 09:27:00 PM 21.9826 -98.8664 194° South  Level Estimated
Fri 09:28:00 PM 21.8745 -98.8955 194° South  Level Estimated
Fri 09:29:00 PM 21.7663 -98.9245 194° South  Level Estimated
Fri 09:30:00 PM 21.6582 -98.9536 194° South  Level Estimated
Fri 09:31:00 PM 21.5500 -98.9825 194° South  Level Estimated
Fri 09:32:00 PM 21.4419 -99.0115 194° South  Level Estimated
Fri 09:33:00 PM 21.3337 -99.0404 194° South  Level Estimated
Fri 09:34:00 PM 21.2255 -99.0692 194° South  Level Estimated
Fri 09:35:00 PM 21.1174 -99.0980 194° South  Level Estimated
Fri 09:36:00 PM 21.0092 -99.1267 194° South  Level Estimated
Fri 09:37:00 PM 20.9010 -99.1555 194° South  Level Estimated
Fri 09:38:00 PM 20.7928 -99.1842 194° South  Level Estimated
Fri 09:39:00 PM 20.6846 -99.2128 194° South  Level Estimated
Fri 09:40:00 PM 20.5764 -99.2414 194° South  Level Estimated
Fri 09:41:00 PM 20.4682 -99.2699 194° South  Level Estimated
Fri 09:42:00 PM 20.3600 -99.2984 194° South  Level Estimated
Fri 09:43:00 PM 20.2518 -99.3269 194° South  Level Estimated
Fri 09:44:00 PM 20.1436 -99.3553 194° South  Level Estimated
Fri 09:45:00 PM 20.0354 -99.3837 194° South  Level Estimated
Fri 09:46:00 PM 19.9272 -99.4121 194° South  Level Estimated
Fri 09:47:00 PM 19.8189 -99.4404 194° South  Level Estimated
Fri 09:48:00 PM 19.7107 -99.4687 194° South  Level Estimated
Fri 09:49:00 PM 19.6024 -99.4969 194° South  Level Estimated
Fri 09:50:00 PM 19.4942 -99.5251 194° South  Level Estimated
Fri 09:51:00 PM 19.3860 -99.5533 194° South  Level Estimated
Fri 09:52:00 PM 19.3371 -99.5660 194° South  Level Estimated
Fri 09:53:00 PM 19.3371 -99.5660 43° Northeast  Level Estimated
Fri 09:54:00 PM 19.3371 -99.5660 43° Northeast  Level Estimated
Fri 09:55:00 PM 19.3371 -99.5660 43° Northeast  Level Estimated
Fri 09:56:00 PM 19.3371 -99.5660 43° Northeast  Level Estimated
Fri 09:57:00 PM 19.3371 -99.5660 43° Northeast  Level Estimated
Fri 09:58:00 PM 19.3371 -99.5660 43° Northeast  Level Estimated
Fri 09:59:00 PM 19.3371 -99.5660 43° Northeast  Level Estimated
Fri 10:00:00 PM 19.3371 -99.5660 43° Northeast  Level Estimated
Fri 10:01:00 PM 19.3371 -99.5660 43° Northeast  Level Estimated
Fri 10:02:00 PM 19.3371 -99.5660 43° Northeast  Level Estimated
Fri 10:03:00 PM 19.3371 -99.5660 43° Northeast  Level Estimated
Fri 10:04:00 PM 19.3371 -99.5660 43° Northeast  Level Estimated
Fri 10:05:00 PM 19.3371 -99.5660 43° Northeast  Level Estimated
Fri 10:06:00 PM 19.3371 -99.5660 43° Northeast  Level Estimated
Fri 10:07:00 PM 19.3371 -99.5660 43° Northeast  Level Estimated
Fri 10:08:00 PM 19.3371 -99.5660 43° Northeast  Level Estimated
Fri 10:09:00 PM 19.3371 -99.5660 43° Northeast  Level Estimated
Fri 10:10:00 PM 19.3371 -99.5660 43° Northeast  Level Estimated
Fri 10:11:00 PM 19.3371 -99.5660 43° Northeast  Level Estimated
Fri 10:12:00 PM 19.3371 -99.5660 43° Northeast  Level Estimated
Fri 10:13:00 PM 19.3371 -99.5660 43° Northeast  Level Estimated
Fri 10:14:00 PM 19.3371 -99.5660 43° Northeast  Level Estimated

Login

Don't have an account? Register now (free) for customized features, flight alerts, and more!